sensor_id;sensor_type;location;lat;lon;timestamp;P1;durP1;ratioP1;P2;durP2;ratioP2
15976;SDS011;8091;51.914;12.786;2022-08-30T00:00:07;4.75;;;3.83;;
15976;SDS011;8091;51.914;12.786;2022-08-30T00:02:57;5.75;;;3.88;;
15976;SDS011;8091;51.914;12.786;2022-08-30T00:05:24;5.45;;;4.13;;
15976;SDS011;8091;51.914;12.786;2022-08-30T00:07:51;5.03;;;3.67;;
15976;SDS011;8091;51.914;12.786;2022-08-30T00:10:17;5.90;;;4.22;;
15976;SDS011;8091;51.914;12.786;2022-08-30T00:12:43;6.75;;;3.83;;
15976;SDS011;8091;51.914;12.786;2022-08-30T00:15:09;6.60;;;4.28;;
15976;SDS011;8091;51.914;12.786;2022-08-30T00:17:36;4.30;;;3.47;;
15976;SDS011;8091;51.914;12.786;2022-08-30T00:20:03;4.30;;;3.42;;
15976;SDS011;8091;51.914;12.786;2022-08-30T00:22:31;4.75;;;3.72;;
15976;SDS011;8091;51.914;12.786;2022-08-30T00:24:57;4.40;;;4.00;;
15976;SDS011;8091;51.914;12.786;2022-08-30T00:27:25;5.60;;;3.17;;
15976;SDS011;8091;51.914;12.786;2022-08-30T00:29:51;4.57;;;3.50;;
15976;SDS011;8091;51.914;12.786;2022-08-30T00:32:17;6.65;;;3.83;;
15976;SDS011;8091;51.914;12.786;2022-08-30T00:34:45;6.03;;;3.38;;
15976;SDS011;8091;51.914;12.786;2022-08-30T00:37:15;3.80;;;3.40;;
15976;SDS011;8091;51.914;12.786;2022-08-30T00:39:41;5.75;;;4.15;;
15976;SDS011;8091;51.914;12.786;2022-08-30T00:42:07;5.18;;;3.58;;
15976;SDS011;8091;51.914;12.786;2022-08-30T00:44:33;4.22;;;3.63;;
15976;SDS011;8091;51.914;12.786;2022-08-30T00:46:59;5.60;;;3.63;;
15976;SDS011;8091;51.914;12.786;2022-08-30T00:49:25;5.75;;;3.28;;
15976;SDS011;8091;51.914;12.786;2022-08-30T00:51:52;3.60;;;3.20;;
15976;SDS011;8091;51.914;12.786;2022-08-30T00:54:18;9.52;;;3.60;;
15976;SDS011;8091;51.914;12.786;2022-08-30T00:56:44;3.75;;;3.45;;
15976;SDS011;8091;51.914;12.786;2022-08-30T00:59:12;4.88;;;3.40;;
15976;SDS011;8091;51.914;12.786;2022-08-30T01:01:38;7.40;;;3.55;;
15976;SDS011;8091;51.914;12.786;2022-08-30T01:04:07;3.85;;;3.00;;
15976;SDS011;8091;51.914;12.786;2022-08-30T01:06:34;3.75;;;2.92;;
15976;SDS011;8091;51.914;12.786;2022-08-30T01:09:00;3.90;;;3.33;;
15976;SDS011;8091;51.914;12.786;2022-08-30T01:11:28;6.18;;;3.47;;
15976;SDS011;8091;51.914;12.786;2022-08-30T01:13:57;4.90;;;3.17;;
15976;SDS011;8091;51.914;12.786;2022-08-30T01:16:23;4.32;;;3.75;;
15976;SDS011;8091;51.914;12.786;2022-08-30T01:18:50;3.58;;;3.13;;
15976;SDS011;8091;51.914;12.786;2022-08-30T01:21:23;3.25;;;2.95;;
15976;SDS011;8091;51.914;12.786;2022-08-30T01:23:50;3.13;;;2.83;;
15976;SDS011;8091;51.914;12.786;2022-08-30T01:26:20;6.20;;;2.90;;
15976;SDS011;8091;51.914;12.786;2022-08-30T01:28:47;5.50;;;3.33;;
15976;SDS011;8091;51.914;12.786;2022-08-30T01:31:17;3.55;;;3.25;;
15976;SDS011;8091;51.914;12.786;2022-08-30T01:33:43;5.45;;;3.30;;
15976;SDS011;8091;51.914;12.786;2022-08-30T01:36:09;5.68;;;3.42;;
15976;SDS011;8091;51.914;12.786;2022-08-30T01:41:21;3.30;;;2.85;;
15976;SDS011;8091;51.914;12.786;2022-08-30T01:43:50;4.32;;;3.38;;
15976;SDS011;8091;51.914;12.786;2022-08-30T01:46:19;4.60;;;3.70;;
15976;SDS011;8091;51.914;12.786;2022-08-30T01:48:46;6.40;;;3.50;;
15976;SDS011;8091;51.914;12.786;2022-08-30T01:51:12;5.78;;;3.53;;
15976;SDS011;8091;51.914;12.786;2022-08-30T01:53:39;3.78;;;3.20;;
15976;SDS011;8091;51.914;12.786;2022-08-30T01:56:06;3.78;;;3.17;;
15976;SDS011;8091;51.914;12.786;2022-08-30T01:58:36;3.72;;;2.88;;
15976;SDS011;8091;51.914;12.786;2022-08-30T02:01:03;6.00;;;3.30;;
15976;SDS011;8091;51.914;12.786;2022-08-30T02:03:31;6.00;;;3.80;;
15976;SDS011;8091;51.914;12.786;2022-08-30T02:06:09;3.47;;;2.90;;
15976;SDS011;8091;51.914;12.786;2022-08-30T02:08:37;3.75;;;3.03;;
15976;SDS011;8091;51.914;12.786;2022-08-30T02:11:06;4.30;;;3.65;;
15976;SDS011;8091;51.914;12.786;2022-08-30T02:13:33;5.97;;;3.50;;
15976;SDS011;8091;51.914;12.786;2022-08-30T02:16:01;3.55;;;3.08;;
15976;SDS011;8091;51.914;12.786;2022-08-30T02:18:28;4.85;;;3.15;;
15976;SDS011;8091;51.914;12.786;2022-08-30T02:20:56;4.28;;;3.00;;
15976;SDS011;8091;51.914;12.786;2022-08-30T02:23:22;3.67;;;3.10;;
15976;SDS011;8091;51.914;12.786;2022-08-30T02:25:47;9.27;;;3.13;;
15976;SDS011;8091;51.914;12.786;2022-08-30T02:28:13;4.57;;;2.90;;
15976;SDS011;8091;51.914;12.786;2022-08-30T02:30:39;4.32;;;3.60;;
15976;SDS011;8091;51.914;12.786;2022-08-30T02:33:06;5.07;;;3.28;;
15976;SDS011;8091;51.914;12.786;2022-08-30T02:35:31;4.57;;;3.13;;
15976;SDS011;8091;51.914;12.786;2022-08-30T02:37:57;3.40;;;3.08;;
15976;SDS011;8091;51.914;12.786;2022-08-30T02:40:23;4.05;;;3.13;;
15976;SDS011;8091;51.914;12.786;2022-08-30T02:42:48;5.00;;;3.92;;
15976;SDS011;8091;51.914;12.786;2022-08-30T02:45:14;4.22;;;3.45;;
15976;SDS011;8091;51.914;12.786;2022-08-30T02:47:40;5.32;;;3.22;;
15976;SDS011;8091;51.914;12.786;2022-08-30T02:50:07;4.10;;;3.70;;
15976;SDS011;8091;51.914;12.786;2022-08-30T02:52:34;4.28;;;3.22;;
15976;SDS011;8091;51.914;12.786;2022-08-30T02:55:03;6.03;;;3.28;;
15976;SDS011;8091;51.914;12.786;2022-08-30T02:57:30;4.22;;;3.30;;
15976;SDS011;8091;51.914;12.786;2022-08-30T02:59:56;5.60;;;3.38;;
15976;SDS011;8091;51.914;12.786;2022-08-30T03:02:22;5.43;;;3.97;;
15976;SDS011;8091;51.914;12.786;2022-08-30T03:04:48;5.00;;;4.07;;
15976;SDS011;8091;51.914;12.786;2022-08-30T03:07:14;4.43;;;3.50;;
15976;SDS011;8091;51.914;12.786;2022-08-30T03:09:41;4.20;;;3.80;;
15976;SDS011;8091;51.914;12.786;2022-08-30T03:12:09;4.80;;;3.65;;
15976;SDS011;8091;51.914;12.786;2022-08-30T03:14:36;4.50;;;3.30;;
15976;SDS011;8091;51.914;12.786;2022-08-30T03:17:03;4.78;;;3.50;;
15976;SDS011;8091;51.914;12.786;2022-08-30T03:19:31;3.53;;;3.17;;
15976;SDS011;8091;51.914;12.786;2022-08-30T03:21:57;5.25;;;3.60;;
15976;SDS011;8091;51.914;12.786;2022-08-30T03:24:23;4.57;;;3.80;;
15976;SDS011;8091;51.914;12.786;2022-08-30T03:26:50;5.22;;;4.28;;
15976;SDS011;8091;51.914;12.786;2022-08-30T03:29:15;6.57;;;4.50;;
15976;SDS011;8091;51.914;12.786;2022-08-30T03:31:41;6.43;;;4.85;;
15976;SDS011;8091;51.914;12.786;2022-08-30T03:34:07;9.77;;;5.78;;
15976;SDS011;8091;51.914;12.786;2022-08-30T03:36:35;8.77;;;5.03;;
15976;SDS011;8091;51.914;12.786;2022-08-30T03:39:02;7.55;;;5.53;;
15976;SDS011;8091;51.914;12.786;2022-08-30T03:41:31;4.82;;;4.30;;
15976;SDS011;8091;51.914;12.786;2022-08-30T03:43:58;4.88;;;4.13;;
15976;SDS011;8091;51.914;12.786;2022-08-30T03:46:24;4.90;;;3.67;;
15976;SDS011;8091;51.914;12.786;2022-08-30T03:48:50;4.63;;;3.65;;
15976;SDS011;8091;51.914;12.786;2022-08-30T03:51:16;4.55;;;3.75;;
15976;SDS011;8091;51.914;12.786;2022-08-30T03:53:43;6.68;;;4.10;;
15976;SDS011;8091;51.914;12.786;2022-08-30T03:56:08;4.88;;;3.90;;
15976;SDS011;8091;51.914;12.786;2022-08-30T03:58:34;4.07;;;3.60;;
15976;SDS011;8091;51.914;12.786;2022-08-30T04:01:00;6.72;;;3.83;;
15976;SDS011;8091;51.914;12.786;2022-08-30T04:03:26;4.45;;;3.90;;
15976;SDS011;8091;51.914;12.786;2022-08-30T04:05:52;4.78;;;3.47;;
15976;SDS011;8091;51.914;12.786;2022-08-30T04:08:19;7.28;;;3.85;;
15976;SDS011;8091;51.914;12.786;2022-08-30T04:10:45;4.97;;;4.05;;
15976;SDS011;8091;51.914;12.786;2022-08-30T04:13:12;5.05;;;3.40;;
15976;SDS011;8091;51.914;12.786;2022-08-30T04:15:40;4.25;;;3.70;;
15976;SDS011;8091;51.914;12.786;2022-08-30T04:18:06;4.95;;;3.78;;
15976;SDS011;8091;51.914;12.786;2022-08-30T04:20:32;7.97;;;4.03;;
15976;SDS011;8091;51.914;12.786;2022-08-30T04:22:58;4.90;;;3.88;;
15976;SDS011;8091;51.914;12.786;2022-08-30T04:25:24;3.53;;;3.22;;
15976;SDS011;8091;51.914;12.786;2022-08-30T04:27:49;6.50;;;3.67;;
15976;SDS011;8091;51.914;12.786;2022-08-30T04:30:15;5.85;;;4.72;;
15976;SDS011;8091;51.914;12.786;2022-08-30T04:32:42;10.18;;;5.22;;
15976;SDS011;8091;51.914;12.786;2022-08-30T04:35:08;5.03;;;4.25;;
15976;SDS011;8091;51.914;12.786;2022-08-30T04:37:34;6.60;;;4.18;;
15976;SDS011;8091;51.914;12.786;2022-08-30T04:40:01;6.88;;;4.93;;
15976;SDS011;8091;51.914;12.786;2022-08-30T04:42:28;7.00;;;4.68;;
15976;SDS011;8091;51.914;12.786;2022-08-30T04:44:56;6.72;;;4.70;;
15976;SDS011;8091;51.914;12.786;2022-08-30T04:47:22;7.20;;;4.50;;
15976;SDS011;8091;51.914;12.786;2022-08-30T04:49:48;7.80;;;5.20;;
15976;SDS011;8091;51.914;12.786;2022-08-30T04:52:13;9.88;;;5.40;;
15976;SDS011;8091;51.914;12.786;2022-08-30T04:54:39;10.13;;;4.93;;
15976;SDS011;8091;51.914;12.786;2022-08-30T04:57:05;6.93;;;5.32;;
15976;SDS011;8091;51.914;12.786;2022-08-30T04:59:31;6.43;;;5.28;;
15976;SDS011;8091;51.914;12.786;2022-08-30T05:01:57;11.38;;;6.78;;
15976;SDS011;8091;51.914;12.786;2022-08-30T05:04:23;9.60;;;6.72;;
15976;SDS011;8091;51.914;12.786;2022-08-30T05:06:49;9.60;;;6.88;;
15976;SDS011;8091;51.914;12.786;2022-08-30T05:09:15;11.43;;;6.95;;
15976;SDS011;8091;51.914;12.786;2022-08-30T05:11:41;11.52;;;7.55;;
15976;SDS011;8091;51.914;12.786;2022-08-30T05:14:07;9.95;;;6.45;;
15976;SDS011;8091;51.914;12.786;2022-08-30T05:16:33;7.75;;;5.85;;
15976;SDS011;8091;51.914;12.786;2022-08-30T05:18:59;8.50;;;6.28;;
15976;SDS011;8091;51.914;12.786;2022-08-30T05:21:25;7.78;;;6.88;;
15976;SDS011;8091;51.914;12.786;2022-08-30T05:23:56;8.10;;;6.47;;
15976;SDS011;8091;51.914;12.786;2022-08-30T05:26:25;10.40;;;7.50;;
15976;SDS011;8091;51.914;12.786;2022-08-30T05:28:52;9.52;;;7.47;;
15976;SDS011;8091;51.914;12.786;2022-08-30T05:31:22;14.02;;;8.80;;
15976;SDS011;8091;51.914;12.786;2022-08-30T05:33:51;11.90;;;7.50;;
15976;SDS011;8091;51.914;12.786;2022-08-30T05:36:18;12.68;;;9.20;;
15976;SDS011;8091;51.914;12.786;2022-08-30T05:38:45;11.50;;;9.07;;
15976;SDS011;8091;51.914;12.786;2022-08-30T05:41:11;10.38;;;8.60;;
15976;SDS011;8091;51.914;12.786;2022-08-30T05:43:37;13.82;;;8.73;;
15976;SDS011;8091;51.914;12.786;2022-08-30T05:46:05;9.70;;;8.32;;
15976;SDS011;8091;51.914;12.786;2022-08-30T05:48:32;11.93;;;8.10;;
15976;SDS011;8091;51.914;12.786;2022-08-30T05:51:02;9.90;;;7.95;;
15976;SDS011;8091;51.914;12.786;2022-08-30T05:53:28;10.40;;;8.20;;
15976;SDS011;8091;51.914;12.786;2022-08-30T05:55:54;8.90;;;7.53;;
15976;SDS011;8091;51.914;12.786;2022-08-30T05:58:19;10.27;;;8.00;;
15976;SDS011;8091;51.914;12.786;2022-08-30T06:00:45;10.82;;;8.90;;
15976;SDS011;8091;51.914;12.786;2022-08-30T06:03:11;10.93;;;8.85;;
15976;SDS011;8091;51.914;12.786;2022-08-30T06:05:37;11.02;;;8.65;;
15976;SDS011;8091;51.914;12.786;2022-08-30T06:08:02;12.27;;;9.60;;
15976;SDS011;8091;51.914;12.786;2022-08-30T06:10:28;11.38;;;8.75;;
15976;SDS011;8091;51.914;12.786;2022-08-30T06:12:54;12.57;;;9.38;;
15976;SDS011;8091;51.914;12.786;2022-08-30T06:15:20;13.13;;;9.70;;
15976;SDS011;8091;51.914;12.786;2022-08-30T06:17:46;13.38;;;9.23;;
15976;SDS011;8091;51.914;12.786;2022-08-30T06:20:12;14.02;;;9.43;;
15976;SDS011;8091;51.914;12.786;2022-08-30T06:22:38;13.30;;;10.23;;
15976;SDS011;8091;51.914;12.786;2022-08-30T06:25:04;13.10;;;9.77;;
15976;SDS011;8091;51.914;12.786;2022-08-30T06:27:30;16.10;;;10.48;;
15976;SDS011;8091;51.914;12.786;2022-08-30T06:29:56;13.07;;;9.48;;
15976;SDS011;8091;51.914;12.786;2022-08-30T06:32:22;15.70;;;11.00;;
15976;SDS011;8091;51.914;12.786;2022-08-30T06:34:47;13.70;;;9.77;;
15976;SDS011;8091;51.914;12.786;2022-08-30T06:37:13;14.93;;;10.07;;
15976;SDS011;8091;51.914;12.786;2022-08-30T06:39:39;14.00;;;9.30;;
15976;SDS011;8091;51.914;12.786;2022-08-30T06:42:05;13.88;;;9.93;;
15976;SDS011;8091;51.914;12.786;2022-08-30T06:44:30;13.63;;;9.18;;
15976;SDS011;8091;51.914;12.786;2022-08-30T06:46:56;15.45;;;10.02;;
15976;SDS011;8091;51.914;12.786;2022-08-30T06:49:22;16.13;;;10.50;;
15976;SDS011;8091;51.914;12.786;2022-08-30T06:51:48;12.88;;;9.48;;
15976;SDS011;8091;51.914;12.786;2022-08-30T06:54:14;17.92;;;10.05;;
15976;SDS011;8091;51.914;12.786;2022-08-30T06:56:40;18.65;;;10.55;;
15976;SDS011;8091;51.914;12.786;2022-08-30T06:59:06;18.50;;;10.18;;
15976;SDS011;8091;51.914;12.786;2022-08-30T07:01:44;16.20;;;10.63;;
15976;SDS011;8091;51.914;12.786;2022-08-30T07:04:09;15.82;;;10.30;;
15976;SDS011;8091;51.914;12.786;2022-08-30T07:06:35;14.40;;;9.88;;
15976;SDS011;8091;51.914;12.786;2022-08-30T07:09:01;17.85;;;10.27;;
15976;SDS011;8091;51.914;12.786;2022-08-30T07:11:30;17.23;;;10.43;;
15976;SDS011;8091;51.914;12.786;2022-08-30T07:13:58;15.35;;;10.10;;
15976;SDS011;8091;51.914;12.786;2022-08-30T07:16:24;14.88;;;10.02;;
15976;SDS011;8091;51.914;12.786;2022-08-30T07:18:50;19.08;;;10.48;;
15976;SDS011;8091;51.914;12.786;2022-08-30T07:21:19;16.42;;;11.13;;
15976;SDS011;8091;51.914;12.786;2022-08-30T07:23:48;17.50;;;10.90;;
15976;SDS011;8091;51.914;12.786;2022-08-30T07:26:16;14.13;;;9.95;;
15976;SDS011;8091;51.914;12.786;2022-08-30T07:28:44;16.05;;;9.68;;
15976;SDS011;8091;51.914;12.786;2022-08-30T07:31:11;17.75;;;9.73;;
15976;SDS011;8091;51.914;12.786;2022-08-30T07:33:39;18.80;;;10.40;;
15976;SDS011;8091;51.914;12.786;2022-08-30T07:36:05;19.15;;;9.80;;
15976;SDS011;8091;51.914;12.786;2022-08-30T07:38:31;15.20;;;9.75;;
15976;SDS011;8091;51.914;12.786;2022-08-30T07:40:57;18.63;;;10.70;;
15976;SDS011;8091;51.914;12.786;2022-08-30T07:43:25;17.80;;;9.90;;
15976;SDS011;8091;51.914;12.786;2022-08-30T07:45:51;17.48;;;10.00;;
15976;SDS011;8091;51.914;12.786;2022-08-30T07:48:17;19.67;;;10.20;;
15976;SDS011;8091;51.914;12.786;2022-08-30T07:50:44;18.88;;;10.35;;
15976;SDS011;8091;51.914;12.786;2022-08-30T07:53:11;19.30;;;11.13;;
15976;SDS011;8091;51.914;12.786;2022-08-30T07:55:37;17.55;;;10.73;;
15976;SDS011;8091;51.914;12.786;2022-08-30T07:58:03;18.88;;;10.27;;
15976;SDS011;8091;51.914;12.786;2022-08-30T08:00:29;19.92;;;10.68;;
15976;SDS011;8091;51.914;12.786;2022-08-30T08:02:55;21.13;;;10.95;;
15976;SDS011;8091;51.914;12.786;2022-08-30T08:05:21;19.65;;;11.15;;
15976;SDS011;8091;51.914;12.786;2022-08-30T08:07:47;17.52;;;10.43;;
15976;SDS011;8091;51.914;12.786;2022-08-30T08:10:12;18.92;;;11.20;;
15976;SDS011;8091;51.914;12.786;2022-08-30T08:12:39;18.60;;;11.27;;
15976;SDS011;8091;51.914;12.786;2022-08-30T08:15:05;18.00;;;10.55;;
15976;SDS011;8091;51.914;12.786;2022-08-30T08:17:31;20.10;;;11.15;;
15976;SDS011;8091;51.914;12.786;2022-08-30T08:19:57;15.95;;;10.50;;
15976;SDS011;8091;51.914;12.786;2022-08-30T08:22:23;22.25;;;11.90;;
15976;SDS011;8091;51.914;12.786;2022-08-30T08:24:48;19.75;;;11.20;;
15976;SDS011;8091;51.914;12.786;2022-08-30T08:27:14;21.35;;;10.65;;
15976;SDS011;8091;51.914;12.786;2022-08-30T08:29:40;16.20;;;9.82;;
15976;SDS011;8091;51.914;12.786;2022-08-30T08:32:07;13.95;;;9.00;;
15976;SDS011;8091;51.914;12.786;2022-08-30T08:34:34;16.80;;;9.73;;
15976;SDS011;8091;51.914;12.786;2022-08-30T08:37:00;17.83;;;10.45;;
15976;SDS011;8091;51.914;12.786;2022-08-30T08:39:25;14.45;;;9.73;;
15976;SDS011;8091;51.914;12.786;2022-08-30T08:42:10;16.80;;;10.15;;
15976;SDS011;8091;51.914;12.786;2022-08-30T08:45:02;18.15;;;10.52;;
15976;SDS011;8091;51.914;12.786;2022-08-30T08:50:06;18.73;;;10.95;;
15976;SDS011;8091;51.914;12.786;2022-08-30T08:52:47;17.10;;;10.13;;
15976;SDS011;8091;51.914;12.786;2022-08-30T08:55:34;18.83;;;10.43;;
15976;SDS011;8091;51.914;12.786;2022-08-30T08:58:06;17.52;;;9.48;;
15976;SDS011;8091;51.914;12.786;2022-08-30T09:00:38;16.33;;;10.23;;
15976;SDS011;8091;51.914;12.786;2022-08-30T09:03:04;16.45;;;9.77;;
15976;SDS011;8091;51.914;12.786;2022-08-30T09:05:33;15.07;;;8.98;;
15976;SDS011;8091;51.914;12.786;2022-08-30T09:08:04;13.27;;;9.05;;
15976;SDS011;8091;51.914;12.786;2022-08-30T09:10:31;13.48;;;9.38;;
15976;SDS011;8091;51.914;12.786;2022-08-30T09:12:58;10.52;;;7.78;;
15976;SDS011;8091;51.914;12.786;2022-08-30T09:15:29;11.05;;;7.57;;
15976;SDS011;8091;51.914;12.786;2022-08-30T09:18:01;10.55;;;7.72;;
15976;SDS011;8091;51.914;12.786;2022-08-30T09:20:50;10.63;;;7.28;;
15976;SDS011;8091;51.914;12.786;2022-08-30T09:23:26;10.32;;;7.18;;
15976;SDS011;8091;51.914;12.786;2022-08-30T09:25:59;10.15;;;6.70;;
15976;SDS011;8091;51.914;12.786;2022-08-30T09:28:30;9.50;;;7.15;;
15976;SDS011;8091;51.914;12.786;2022-08-30T09:31:24;8.73;;;6.25;;
15976;SDS011;8091;51.914;12.786;2022-08-30T09:34:05;8.95;;;6.85;;
15976;SDS011;8091;51.914;12.786;2022-08-30T09:36:43;8.10;;;6.03;;
15976;SDS011;8091;51.914;12.786;2022-08-30T09:41:52;8.43;;;6.78;;
15976;SDS011;8091;51.914;12.786;2022-08-30T09:44:19;8.70;;;6.70;;
15976;SDS011;8091;51.914;12.786;2022-08-30T09:46:51;9.70;;;6.45;;
15976;SDS011;8091;51.914;12.786;2022-08-30T09:49:33;9.02;;;6.88;;
15976;SDS011;8091;51.914;12.786;2022-08-30T09:54:38;9.13;;;6.20;;
15976;SDS011;8091;51.914;12.786;2022-08-30T09:59:57;8.10;;;5.45;;
15976;SDS011;8091;51.914;12.786;2022-08-30T10:07:47;8.30;;;5.28;;
15976;SDS011;8091;51.914;12.786;2022-08-30T10:15:57;3.97;;;3.58;;
15976;SDS011;8091;51.914;12.786;2022-08-30T10:18:40;4.88;;;3.80;;
15976;SDS011;8091;51.914;12.786;2022-08-30T10:21:27;3.30;;;3.00;;
15976;SDS011;8091;51.914;12.786;2022-08-30T10:24:01;6.50;;;3.83;;
15976;SDS011;8091;51.914;12.786;2022-08-30T10:29:01;6.30;;;4.07;;
15976;SDS011;8091;51.914;12.786;2022-08-30T10:31:51;11.25;;;5.13;;
15976;SDS011;8091;51.914;12.786;2022-08-30T10:36:55;5.80;;;4.32;;
15976;SDS011;8091;51.914;12.786;2022-08-30T10:39:27;4.85;;;3.60;;
15976;SDS011;8091;51.914;12.786;2022-08-30T10:42:02;7.05;;;3.40;;
15976;SDS011;8091;51.914;12.786;2022-08-30T10:44:36;7.43;;;3.72;;
15976;SDS011;8091;51.914;12.786;2022-08-30T10:49:59;5.07;;;3.75;;
15976;SDS011;8091;51.914;12.786;2022-08-30T10:55:27;3.80;;;3.17;;
15976;SDS011;8091;51.914;12.786;2022-08-30T10:57:58;5.88;;;2.90;;
15976;SDS011;8091;51.914;12.786;2022-08-30T11:00:35;3.45;;;2.42;;
15976;SDS011;8091;51.914;12.786;2022-08-30T11:08:47;2.67;;;2.47;;
15976;SDS011;8091;51.914;12.786;2022-08-30T11:14:22;2.35;;;2.13;;
15976;SDS011;8091;51.914;12.786;2022-08-30T11:16:50;3.08;;;2.05;;
15976;SDS011;8091;51.914;12.786;2022-08-30T11:19:23;2.15;;;1.90;;
15976;SDS011;8091;51.914;12.786;2022-08-30T11:22:11;2.30;;;2.10;;
15976;SDS011;8091;51.914;12.786;2022-08-30T11:25:14;2.25;;;1.95;;
15976;SDS011;8091;51.914;12.786;2022-08-30T11:27:44;1.83;;;1.73;;
15976;SDS011;8091;51.914;12.786;2022-08-30T11:33:03;3.92;;;1.80;;
15976;SDS011;8091;51.914;12.786;2022-08-30T11:46:49;3.63;;;1.75;;
15976;SDS011;8091;51.914;12.786;2022-08-30T11:48:53;2.20;;;2.00;;
15976;SDS011;8091;51.914;12.786;2022-08-30T11:51:42;3.80;;;2.00;;
15976;SDS011;8091;51.914;12.786;2022-08-30T11:54:22;2.13;;;1.92;;
15976;SDS011;8091;51.914;12.786;2022-08-30T11:57:41;2.08;;;1.73;;
15976;SDS011;8091;51.914;12.786;2022-08-30T12:00:03;2.20;;;2.00;;
15976;SDS011;8091;51.914;12.786;2022-08-30T12:11:05;1.67;;;1.58;;
15976;SDS011;8091;51.914;12.786;2022-08-30T12:13:52;3.13;;;1.73;;
15976;SDS011;8091;51.914;12.786;2022-08-30T12:16:22;1.58;;;1.48;;
15976;SDS011;8091;51.914;12.786;2022-08-30T12:18:55;1.67;;;1.58;;
15976;SDS011;8091;51.914;12.786;2022-08-30T12:21:32;4.32;;;1.58;;
15976;SDS011;8091;51.914;12.786;2022-08-30T12:24:05;4.65;;;1.40;;
15976;SDS011;8091;51.914;12.786;2022-08-30T12:26:41;1.52;;;1.42;;
15976;SDS011;8091;51.914;12.786;2022-08-30T12:31:47;1.13;;;1.02;;
15976;SDS011;8091;51.914;12.786;2022-08-30T12:34:28;3.15;;;1.80;;
15976;SDS011;8091;51.914;12.786;2022-08-30T12:37:01;1.40;;;1.30;;
15976;SDS011;8091;51.914;12.786;2022-08-30T12:39:45;1.48;;;1.20;;
15976;SDS011;8091;51.914;12.786;2022-08-30T12:42:16;1.40;;;1.10;;
15976;SDS011;8091;51.914;12.786;2022-08-30T12:44:45;3.20;;;1.08;;
15976;SDS011;8091;51.914;12.786;2022-08-30T12:47:12;1.00;;;1.00;;
15976;SDS011;8091;51.914;12.786;2022-08-30T12:49:41;3.15;;;1.00;;
15976;SDS011;8091;51.914;12.786;2022-08-30T12:52:30;2.40;;;1.10;;
15976;SDS011;8091;51.914;12.786;2022-08-30T12:55:20;2.47;;;1.10;;
15976;SDS011;8091;51.914;12.786;2022-08-30T12:57:58;1.58;;;0.90;;
15976;SDS011;8091;51.914;12.786;2022-08-30T13:02:58;2.13;;;0.85;;
15976;SDS011;8091;51.914;12.786;2022-08-30T13:08:12;1.17;;;0.88;;
15976;SDS011;8091;51.914;12.786;2022-08-30T13:10:48;1.92;;;0.98;;
15976;SDS011;8091;51.914;12.786;2022-08-30T13:13:26;3.35;;;0.80;;
15976;SDS011;8091;51.914;12.786;2022-08-30T13:16:05;0.90;;;0.90;;
15976;SDS011;8091;51.914;12.786;2022-08-30T13:18:47;2.40;;;1.10;;
15976;SDS011;8091;51.914;12.786;2022-08-30T13:21:45;3.33;;;1.00;;
15976;SDS011;8091;51.914;12.786;2022-08-30T13:24:11;1.00;;;0.90;;
15976;SDS011;8091;51.914;12.786;2022-08-30T13:26:37;1.10;;;1.00;;
15976;SDS011;8091;51.914;12.786;2022-08-30T13:29:05;1.55;;;1.05;;
15976;SDS011;8091;51.914;12.786;2022-08-30T13:31:37;0.80;;;0.80;;
15976;SDS011;8091;51.914;12.786;2022-08-30T13:34:03;3.17;;;1.10;;
15976;SDS011;8091;51.914;12.786;2022-08-30T13:36:30;1.27;;;1.10;;
15976;SDS011;8091;51.914;12.786;2022-08-30T13:38:58;1.45;;;0.90;;
15976;SDS011;8091;51.914;12.786;2022-08-30T13:41:24;3.20;;;0.90;;
15976;SDS011;8091;51.914;12.786;2022-08-30T13:43:51;2.50;;;1.10;;
15976;SDS011;8091;51.914;12.786;2022-08-30T13:46:17;1.85;;;1.00;;
15976;SDS011;8091;51.914;12.786;2022-08-30T13:48:44;1.13;;;0.70;;
15976;SDS011;8091;51.914;12.786;2022-08-30T13:51:09;1.05;;;1.00;;
15976;SDS011;8091;51.914;12.786;2022-08-30T13:53:35;1.05;;;0.95;;
15976;SDS011;8091;51.914;12.786;2022-08-30T13:56:01;1.05;;;0.95;;
15976;SDS011;8091;51.914;12.786;2022-08-30T13:58:29;1.55;;;1.20;;
15976;SDS011;8091;51.914;12.786;2022-08-30T14:00:56;1.92;;;1.48;;
15976;SDS011;8091;51.914;12.786;2022-08-30T14:03:22;1.95;;;1.25;;
15976;SDS011;8091;51.914;12.786;2022-08-30T14:05:48;2.83;;;1.30;;
15976;SDS011;8091;51.914;12.786;2022-08-30T14:08:14;2.15;;;0.90;;
15976;SDS011;8091;51.914;12.786;2022-08-30T14:10:42;3.15;;;1.33;;
15976;SDS011;8091;51.914;12.786;2022-08-30T14:13:07;1.75;;;1.20;;
15976;SDS011;8091;51.914;12.786;2022-08-30T14:15:34;2.40;;;1.10;;
15976;SDS011;8091;51.914;12.786;2022-08-30T14:18:01;3.55;;;1.08;;
15976;SDS011;8091;51.914;12.786;2022-08-30T14:20:26;4.88;;;1.20;;
15976;SDS011;8091;51.914;12.786;2022-08-30T14:22:53;2.53;;;1.58;;
15976;SDS011;8091;51.914;12.786;2022-08-30T14:25:19;1.38;;;1.27;;
15976;SDS011;8091;51.914;12.786;2022-08-30T14:27:44;5.15;;;1.67;;
15976;SDS011;8091;51.914;12.786;2022-08-30T14:30:10;1.48;;;1.38;;
15976;SDS011;8091;51.914;12.786;2022-08-30T14:32:36;1.50;;;1.40;;
15976;SDS011;8091;51.914;12.786;2022-08-30T14:35:02;4.70;;;2.03;;
15976;SDS011;8091;51.914;12.786;2022-08-30T14:37:27;3.60;;;1.67;;
15976;SDS011;8091;51.914;12.786;2022-08-30T14:39:53;2.33;;;1.90;;
15976;SDS011;8091;51.914;12.786;2022-08-30T14:42:19;2.45;;;1.80;;
15976;SDS011;8091;51.914;12.786;2022-08-30T14:44:44;3.58;;;1.65;;
15976;SDS011;8091;51.914;12.786;2022-08-30T14:47:10;3.25;;;1.45;;
15976;SDS011;8091;51.914;12.786;2022-08-30T14:49:36;4.88;;;1.75;;
15976;SDS011;8091;51.914;12.786;2022-08-30T14:52:01;3.35;;;1.60;;
15976;SDS011;8091;51.914;12.786;2022-08-30T14:54:28;1.90;;;1.75;;
15976;SDS011;8091;51.914;12.786;2022-08-30T14:56:54;3.72;;;1.63;;
15976;SDS011;8091;51.914;12.786;2022-08-30T14:59:21;2.17;;;1.77;;
15976;SDS011;8091;51.914;12.786;2022-08-30T15:01:47;2.90;;;1.70;;
15976;SDS011;8091;51.914;12.786;2022-08-30T15:04:13;1.90;;;1.70;;
15976;SDS011;8091;51.914;12.786;2022-08-30T15:06:40;2.22;;;1.80;;
15976;SDS011;8091;51.914;12.786;2022-08-30T15:09:08;4.63;;;1.95;;
15976;SDS011;8091;51.914;12.786;2022-08-30T15:11:35;3.53;;;1.48;;
15976;SDS011;8091;51.914;12.786;2022-08-30T15:14:02;2.13;;;1.63;;
15976;SDS011;8091;51.914;12.786;2022-08-30T15:16:29;2.05;;;1.67;;
15976;SDS011;8091;51.914;12.786;2022-08-30T15:18:57;5.55;;;1.90;;
15976;SDS011;8091;51.914;12.786;2022-08-30T15:21:24;2.17;;;1.48;;
15976;SDS011;8091;51.914;12.786;2022-08-30T15:23:51;1.88;;;1.67;;
15976;SDS011;8091;51.914;12.786;2022-08-30T15:26:17;2.67;;;1.65;;
15976;SDS011;8091;51.914;12.786;2022-08-30T15:28:43;2.78;;;2.08;;
15976;SDS011;8091;51.914;12.786;2022-08-30T15:31:09;6.32;;;2.00;;
15976;SDS011;8091;51.914;12.786;2022-08-30T15:33:36;1.70;;;1.60;;
15976;SDS011;8091;51.914;12.786;2022-08-30T15:36:03;1.60;;;1.50;;
15976;SDS011;8091;51.914;12.786;2022-08-30T15:38:30;4.15;;;1.70;;
15976;SDS011;8091;51.914;12.786;2022-08-30T15:40:55;3.20;;;1.65;;
15976;SDS011;8091;51.914;12.786;2022-08-30T15:43:25;1.73;;;1.63;;
15976;SDS011;8091;51.914;12.786;2022-08-30T15:45:52;3.75;;;1.42;;
15976;SDS011;8091;51.914;12.786;2022-08-30T15:48:18;1.50;;;1.40;;
15976;SDS011;8091;51.914;12.786;2022-08-30T15:50:44;1.50;;;1.40;;
15976;SDS011;8091;51.914;12.786;2022-08-30T15:53:10;1.50;;;1.40;;
15976;SDS011;8091;51.914;12.786;2022-08-30T15:55:35;1.67;;;1.48;;
15976;SDS011;8091;51.914;12.786;2022-08-30T15:58:01;3.53;;;1.88;;
15976;SDS011;8091;51.914;12.786;2022-08-30T16:00:27;2.85;;;1.90;;
15976;SDS011;8091;51.914;12.786;2022-08-30T16:02:52;5.10;;;1.95;;
15976;SDS011;8091;51.914;12.786;2022-08-30T16:05:18;3.60;;;1.65;;